KPVD/PVD METAR and TAF weather

Enter ICAO airport designator
Station Type Date Time Source
KPVD METAR 2019/08/25 19:51 UTC NOAA

KPVD 251951Z 03014G20KT 10SM SCT025 BKN033 BKN046 BKN250 20/13 A3029 RMK AO2 SLP256 DZB1852E02 P0000 T02000133


Station Type Date Time Source
KPVD Decoded METAR 2019/08/25 19:51 UTC NOAA

Station name not available
Aug 25, 2019 - 03:51 PM EDT / 2019.08.25 1951 UTC
Wind: from the NNE (030 degrees) at 16 MPH (14 KT) gusting to 23 MPH (20 KT):0
Visibility: 10 mile(s):0
Sky conditions: mostly cloudy
Precipitation last hour: A trace
Temperature: 68.0 F (20.0 C)
Dew Point: 55.9 F (13.3 C)
Relative Humidity: 65%
Pressure (altimeter): 30.29 in. Hg (1025 hPa)
ob: KPVD 251951Z 03014G20KT 10SM SCT025 BKN033 BKN046 BKN250 20/13 A3029 RMK AO2 SLP256 DZB1852E02 P0000 T02000133
cycle: 20

Station Type Date Time Source
KPVD TAF 2019/08/25 18:24 UTC NOAA

TAF KPVD 251722Z 2518/2618 05015G25KT P6SM VCSH SCT020 BKN050
FM252000 06012G22KT P6SM BKN050
FM260000 05010KT P6SM SCT030
FM260700 02010KT P6SM BKN020
FM261400 04012KT P6SM BKN020
FM261600 05012KT P6SM SCT025

Example: see airport list